Time;durP1;ratioP1;P1;durP2;ratioP2;P2;SDS_P1;SDS_P2;PMS_P1;PMS_P2;Temp;Humidity;BMP_temperature;BMP_pressure;BME280_temperature;BME280_humidity;BME280_pressure;Samples;Min_cycle;Max_cycle;Signal;HPM_P1;HPM_P2
2024/02/19 00:00:25;;;;;;;24.37;4.27;;;9.30;99.90;;;;;;5051660;28;38561;-77
2024/02/19 00:02:51;;;;;;;25.70;4.67;;;9.30;99.90;;;;;;5048833;28;36129;-77
2024/02/19 00:05:17;;;;;;;38.47;5.07;;;9.20;99.90;;;;;;5048118;28;38034;-77
2024/02/19 00:07:46;;;;;;;38.50;5.50;;;9.30;99.90;;;;;;5042911;28;37447;-80
2024/02/19 00:10:20;;;;;;;30.23;6.27;;;9.20;99.90;;;;;;5058480;28;37351;-79
2024/02/19 00:12:48;;;;;;;31.27;5.20;;;9.30;99.90;;;;;;5077739;28;36959;-80
2024/02/19 00:15:15;;;;;;;40.77;7.07;;;9.30;99.90;;;;;;5076719;28;38160;-79
2024/02/19 00:17:41;;;;;;;38.23;5.60;;;9.30;99.90;;;;;;5061130;28;37172;-80
2024/02/19 00:20:08;;;;;;;41.67;5.73;;;9.30;99.90;;;;;;5059835;28;37270;-79
2024/02/19 00:22:43;;;;;;;30.23;4.73;;;9.30;99.90;;;;;;5064297;28;35973;-81
2024/02/19 00:25:12;;;;;;;35.07;5.03;;;9.30;99.90;;;;;;5077677;28;40043;-80
2024/02/19 00:27:43;;;;;;;33.00;4.67;;;9.30;99.90;;;;;;5077897;28;38513;-80
2024/02/19 00:30:10;;;;;;;33.50;4.57;;;9.30;99.90;;;;;;5056874;28;39173;-80
2024/02/19 00:32:36;;;;;;;31.73;6.00;;;9.30;99.90;;;;;;5038418;28;37252;-79
2024/02/19 00:35:05;;;;;;;33.40;4.73;;;9.30;99.90;;;;;;5071767;28;39379;-78
2024/02/19 00:37:32;;;;;;;29.17;4.77;;;9.30;99.90;;;;;;5073706;28;47166;-79
2024/02/19 00:39:59;;;;;;;33.63;4.43;;;9.40;99.90;;;;;;5057813;28;36670;-80
2024/02/19 00:42:26;;;;;;;28.97;4.97;;;9.40;99.90;;;;;;5057931;28;37128;-79
2024/02/19 00:44:52;;;;;;;29.67;4.77;;;9.40;99.90;;;;;;5061959;28;39791;-80
2024/02/19 00:47:19;;;;;;;34.77;5.17;;;9.40;99.90;;;;;;5060844;28;37196;-80
2024/02/19 00:49:51;;;;;;;25.97;4.70;;;9.40;99.90;;;;;;5078684;28;39623;-80
2024/02/19 00:52:21;;;;;;;23.50;4.80;;;9.50;99.90;;;;;;5066734;28;37962;-80
2024/02/19 00:55:04;;;;;;;34.97;4.30;;;9.50;99.90;;;;;;5060776;28;37781;-79
2024/02/19 00:57:30;;;;;;;;;;;9.50;99.90;;;;;;5077727;28;50195;-79
2024/02/19 01:00:16;;;;;;;30.73;4.83;;;9.50;99.90;;;;;;5061326;28;39883;-80
2024/02/19 01:02:42;;;;;;;36.63;4.90;;;9.50;99.90;;;;;;5055497;28;36991;-79
2024/02/19 01:05:09;;;;;;;34.97;4.77;;;9.50;99.90;;;;;;5060531;28;38956;-80
2024/02/19 01:07:37;;;;;;;28.30;4.80;;;9.50;99.90;;;;;;5060767;28;37024;-80
2024/02/19 01:10:27;;;;;;;37.40;6.10;;;9.50;99.90;;;;;;5057113;28;37938;-79
2024/02/19 01:13:04;;;;;;;36.20;4.37;;;9.60;99.90;;;;;;5068736;28;48055;-80
2024/02/19 01:15:30;;;;;;;29.93;4.50;;;9.60;99.90;;;;;;5056313;28;48101;-80
2024/02/19 01:18:09;;;;;;;36.57;4.90;;;9.60;99.90;;;;;;5072268;28;38561;-80
2024/02/19 01:20:40;;;;;;;31.93;5.20;;;9.60;99.90;;;;;;5060641;28;48601;-80
2024/02/19 01:23:16;;;;;;;28.23;4.43;;;9.60;99.90;;;;;;5075235;28;37354;-79
2024/02/19 01:25:43;;;;;;;31.37;4.43;;;9.60;99.90;;;;;;5072868;28;38902;-80
2024/02/19 01:28:12;;;;;;;27.47;3.57;;;9.60;99.90;;;;;;5065816;28;37639;-79
2024/02/19 01:30:40;;;;;;;31.87;5.03;;;9.60;99.90;;;;;;5076965;28;38421;-79
2024/02/19 01:33:06;;;;;;;36.20;4.97;;;9.60;99.90;;;;;;5047001;28;37000;-79
2024/02/19 01:35:32;;;;;;;28.73;4.37;;;9.60;99.90;;;;;;5077718;28;40342;-79
2024/02/19 01:37:59;;;;;;;28.70;3.60;;;9.60;99.90;;;;;;5059562;28;38591;-80
2024/02/19 01:40:35;;;;;;;22.17;3.47;;;9.60;99.90;;;;;;5077020;28;38802;-79
2024/02/19 01:43:22;;;;;;;25.57;4.23;;;9.60;99.90;;;;;;5059036;28;37847;-79
2024/02/19 01:45:57;;;;;;;26.37;3.57;;;9.60;99.90;;;;;;5071167;28;47436;-80
2024/02/19 01:48:24;;;;;;;20.63;3.40;;;9.70;99.90;;;;;;5059158;28;38724;-79
2024/02/19 01:50:57;;;;;;;23.70;3.83;;;9.70;99.90;;;;;;5056103;28;38513;-80
2024/02/19 01:53:36;;;;;;;23.42;4.05;;;9.70;99.90;;;;;;5064428;28;38665;-79
2024/02/19 01:56:09;;;;;;;25.93;5.13;;;9.70;99.90;;;;;;5050833;28;38303;-79
2024/02/19 01:58:37;;;;;;;26.30;3.93;;;9.70;99.90;;;;;;5054835;28;37692;-79
2024/02/19 02:03:40;;;;;;;22.97;3.67;;;9.70;99.90;;;;;;5201450;22;20042;-75
2024/02/19 02:06:06;;;;;;;21.17;2.83;;;9.70;99.90;;;;;;5036797;28;39693;-74
2024/02/19 02:08:32;;;;;;;25.03;3.60;;;9.70;99.90;;;;;;5026671;28;39339;-74
2024/02/19 02:10:58;;;;;;;29.87;4.47;;;9.80;99.90;;;;;;5042374;28;38771;-75
2024/02/19 02:13:24;;;;;;;26.07;4.40;;;9.70;99.90;;;;;;5021297;28;37033;-74
2024/02/19 02:15:52;;;;;;;19.60;3.50;;;9.80;99.90;;;;;;5039069;28;40068;-74
2024/02/19 02:18:18;;;;;;;24.43;3.33;;;9.80;99.90;;;;;;5024366;28;39014;-74
2024/02/19 02:20:45;;;;;;;25.20;3.33;;;9.80;99.90;;;;;;5042852;28;38969;-74
2024/02/19 02:23:13;;;;;;;24.13;3.00;;;9.80;99.90;;;;;;5023450;28;39022;-74
2024/02/19 02:25:40;;;;;;;21.87;3.97;;;9.80;99.90;;;;;;5027987;28;39555;-74
2024/02/19 02:28:06;;;;;;;25.57;3.60;;;9.70;99.90;;;;;;5037843;28;38363;-74
2024/02/19 02:30:32;;;;;;;24.00;3.33;;;9.80;99.90;;;;;;5042511;28;37748;-74
2024/02/19 02:32:58;;;;;;;25.03;4.07;;;9.70;99.90;;;;;;5043835;28;37980;-74
2024/02/19 02:35:25;;;;;;;21.07;3.43;;;9.80;99.90;;;;;;5026624;28;39090;-74
2024/02/19 02:37:51;;;;;;;24.17;3.93;;;9.80;99.90;;;;;;5037730;28;39518;-74
2024/02/19 02:40:17;;;;;;;18.73;3.97;;;9.80;99.90;;;;;;5042438;28;38313;-74
2024/02/19 02:42:44;;;;;;;21.80;4.33;;;9.80;99.90;;;;;;5041593;28;37052;-74
2024/02/19 02:45:10;;;;;;;22.90;3.33;;;9.80;99.90;;;;;;5024920;28;40329;-74
2024/02/19 02:47:37;;;;;;;22.53;4.13;;;9.80;99.90;;;;;;5047869;28;38244;-75
2024/02/19 02:50:04;;;;;;;26.80;3.70;;;9.80;99.90;;;;;;5023023;28;38080;-74
2024/02/19 02:52:30;;;;;;;28.40;5.10;;;9.80;99.90;;;;;;5046512;28;48749;-74
2024/02/19 02:54:56;;;;;;;21.70;4.07;;;9.80;99.90;;;;;;5024795;28;39861;-74
2024/02/19 02:57:22;;;;;;;23.73;3.63;;;9.90;99.90;;;;;;5044372;28;39177;-74
2024/02/19 02:59:48;;;;;;;27.97;3.80;;;9.90;99.90;;;;;;5029521;28;37221;-74
2024/02/19 03:02:15;;;;;;;17.43;3.43;;;9.90;99.90;;;;;;5027504;28;37282;-74
2024/02/19 03:04:41;;;;;;;20.80;4.53;;;9.90;99.90;;;;;;5030401;28;40209;-74
2024/02/19 03:07:08;;;;;;;25.60;3.60;;;9.90;99.90;;;;;;5048339;28;38709;-74
2024/02/19 03:09:34;;;;;;;23.97;3.80;;;9.90;99.90;;;;;;5031537;28;39772;-74
2024/02/19 03:12:00;;;;;;;16.00;3.30;;;9.90;99.90;;;;;;5025234;28;36672;-74
2024/02/19 03:14:26;;;;;;;22.57;4.20;;;10.00;99.90;;;;;;5025960;28;39565;-74
2024/02/19 03:16:52;;;;;;;24.83;3.70;;;10.00;99.90;;;;;;5047238;28;38424;-75
2024/02/19 03:19:19;;;;;;;21.57;3.50;;;10.00;99.90;;;;;;5045752;28;37874;-74
2024/02/19 03:21:45;;;;;;;22.33;3.73;;;10.10;99.90;;;;;;5030626;28;38050;-74
2024/02/19 03:24:14;;;;;;;19.80;3.30;;;10.10;99.90;;;;;;5029520;28;39208;-74
2024/02/19 03:26:41;;;;;;;16.57;2.70;;;10.10;99.90;;;;;;5042575;28;38425;-74
2024/02/19 03:29:12;;;;;;;19.43;3.30;;;10.10;99.90;;;;;;5048071;28;38639;-74
2024/02/19 03:31:42;;;;;;;25.07;3.77;;;10.10;99.90;;;;;;5044161;28;38103;-74
2024/02/19 03:34:08;;;;;;;18.83;3.57;;;10.20;99.90;;;;;;5024815;28;38115;-74
2024/02/19 03:36:35;;;;;;;19.30;3.90;;;10.20;99.90;;;;;;5040136;28;39158;-74
2024/02/19 03:39:02;;;;;;;20.40;3.50;;;10.10;99.90;;;;;;5026427;28;38277;-74
2024/02/19 03:41:28;;;;;;;20.20;2.97;;;10.20;99.90;;;;;;5045617;28;48514;-73
2024/02/19 03:43:54;;;;;;;17.67;2.93;;;10.20;99.90;;;;;;5043324;28;38289;-74
2024/02/19 03:46:20;;;;;;;18.27;3.37;;;10.30;99.90;;;;;;5025873;28;39812;-74
2024/02/19 03:48:46;;;;;;;26.73;4.97;;;10.30;99.90;;;;;;5041774;28;37939;-73
2024/02/19 03:51:12;;;;;;;11.83;2.97;;;10.30;99.90;;;;;;5021978;28;38106;-74
2024/02/19 03:53:39;;;;;;;16.97;2.87;;;10.30;99.90;;;;;;5037489;28;38745;-74
2024/02/19 03:56:05;;;;;;;19.07;3.27;;;10.30;99.90;;;;;;5019140;28;37665;-74
2024/02/19 03:58:31;;;;;;;19.00;3.30;;;10.30;99.90;;;;;;5018230;28;39921;-75
2024/02/19 04:00:57;;;;;;;19.27;4.77;;;10.30;99.90;;;;;;5036247;28;37189;-74
2024/02/19 04:03:24;;;;;;;14.93;3.43;;;10.40;99.90;;;;;;5038009;28;37894;-74
2024/02/19 04:05:50;;;;;;;20.97;3.60;;;10.40;99.90;;;;;;5031089;28;38490;-74
2024/02/19 04:08:16;;;;;;;16.63;3.43;;;10.40;99.90;;;;;;5021619;28;38628;-75
2024/02/19 04:10:42;;;;;;;23.77;4.43;;;10.40;99.90;;;;;;5018456;28;37923;-74
2024/02/19 04:13:09;;;;;;;20.57;4.33;;;10.40;99.90;;;;;;5038987;28;38806;-74
2024/02/19 04:15:35;;;;;;;25.77;4.43;;;10.40;99.90;;;;;;5037156;28;39265;-75
2024/02/19 04:18:01;;;;;;;18.97;4.33;;;10.40;99.90;;;;;;5043063;28;39154;-74
2024/02/19 04:20:27;;;;;;;23.77;4.03;;;10.40;99.90;;;;;;5019020;28;47240;-74
2024/02/19 04:22:53;;;;;;;17.70;4.30;;;10.40;99.90;;;;;;5046099;28;39893;-74
2024/02/19 04:25:19;;;;;;;24.67;4.63;;;10.40;99.90;;;;;;5022304;28;37700;-74
2024/02/19 04:27:45;;;;;;;22.90;5.00;;;10.40;99.90;;;;;;5019645;28;40166;-74
2024/02/19 04:30:12;;;;;;;20.07;4.47;;;10.40;99.90;;;;;;5043014;28;36862;-75
2024/02/19 04:32:38;;;;;;;25.80;4.30;;;10.40;99.90;;;;;;5047542;28;38637;-74
2024/02/19 04:35:04;;;;;;;19.27;4.53;;;10.40;99.90;;;;;;5039351;28;38993;-74
2024/02/19 04:37:31;;;;;;;19.43;4.53;;;10.40;99.90;;;;;;5020483;28;47240;-74
2024/02/19 04:39:57;;;;;;;19.97;3.87;;;10.40;99.90;;;;;;5027057;28;37453;-74
2024/02/19 04:42:23;;;;;;;23.93;5.07;;;10.40;99.90;;;;;;5046369;28;39904;-74
2024/02/19 04:44:49;;;;;;;21.47;5.10;;;10.40;99.90;;;;;;5043461;28;38588;-74
2024/02/19 04:47:16;;;;;;;18.13;4.43;;;10.40;99.90;;;;;;5026225;28;39670;-74
2024/02/19 04:49:42;;;;;;;22.20;4.47;;;10.40;99.90;;;;;;5026943;28;37367;-74
2024/02/19 04:52:09;;;;;;;26.13;5.27;;;10.30;99.90;;;;;;5021386;28;39336;-74
2024/02/19 04:54:36;;;;;;;23.27;5.67;;;10.30;99.90;;;;;;5045394;28;38534;-74
2024/02/19 04:57:02;;;;;;;23.27;5.20;;;10.30;99.90;;;;;;5029413;28;38292;-74
2024/02/19 04:59:29;;;;;;;19.00;5.30;;;10.30;99.90;;;;;;5021587;28;35836;-73
2024/02/19 05:01:56;;;;;;;21.67;4.50;;;10.30;99.90;;;;;;5039436;28;38589;-74
2024/02/19 05:04:23;;;;;;;26.43;6.83;;;10.30;99.90;;;;;;5038227;28;37902;-74
2024/02/19 05:06:50;;;;;;;21.60;5.10;;;10.30;99.90;;;;;;5042593;28;38077;-74
2024/02/19 05:09:16;;;;;;;19.03;4.93;;;10.30;99.90;;;;;;5037056;28;37381;-74
2024/02/19 05:11:42;;;;;;;18.67;5.83;;;10.30;99.90;;;;;;5020545;28;39659;-74
2024/02/19 05:14:08;;;;;;;21.30;5.27;;;10.20;99.90;;;;;;5019183;28;37165;-74
2024/02/19 05:16:34;;;;;;;22.20;5.23;;;10.20;99.90;;;;;;5039267;28;38573;-73
2024/02/19 05:19:02;;;;;;;25.00;6.33;;;10.20;99.90;;;;;;5042185;28;37357;-74
2024/02/19 05:21:30;;;;;;;21.23;6.27;;;10.20;99.90;;;;;;5024279;28;47304;-74
2024/02/19 05:23:57;;;;;;;21.37;6.07;;;10.20;99.90;;;;;;5044925;28;38452;-74
2024/02/19 05:26:26;;;;;;;23.43;6.27;;;10.10;99.90;;;;;;5027117;28;20060;-74
2024/02/19 05:28:53;;;;;;;23.63;6.27;;;10.10;99.90;;;;;;5020586;28;36102;-75
2024/02/19 05:31:32;;;;;;;28.53;7.33;;;10.10;99.90;;;;;;5012927;28;37648;-75
2024/02/19 05:33:59;;;;;;;19.77;5.40;;;10.10;99.90;;;;;;5029817;28;37508;-75
2024/02/19 05:36:25;;;;;;;24.57;6.00;;;10.10;99.90;;;;;;5043254;28;40251;-75
2024/02/19 05:38:53;;;;;;;27.00;6.60;;;10.10;99.90;;;;;;5051665;28;37651;-75
2024/02/19 05:41:20;;;;;;;23.73;6.63;;;10.10;99.90;;;;;;5027389;28;39513;-74
2024/02/19 05:43:46;;;;;;;23.57;5.83;;;10.10;99.90;;;;;;5027899;28;37646;-74
2024/02/19 05:46:16;;;;;;;23.63;6.03;;;10.10;99.90;;;;;;5026553;28;38725;-74
2024/02/19 05:48:43;;;;;;;30.27;5.93;;;10.10;99.90;;;;;;5029045;28;36517;-73
2024/02/19 05:51:15;;;;;;;20.67;4.77;;;10.10;99.90;;;;;;5039173;28;39603;-74
2024/02/19 05:53:41;;;;;;;28.83;5.55;;;10.10;99.90;;;;;;5020252;28;37422;-74
2024/02/19 05:56:10;;;;;;;24.90;6.57;;;10.10;99.90;;;;;;5027176;28;37223;-74
2024/02/19 05:58:42;;;;;;;28.43;6.27;;;10.10;99.90;;;;;;5042515;28;37974;-74
2024/02/19 06:01:09;;;;;;;20.92;4.90;;;10.10;99.90;;;;;;5039537;28;39262;-74
2024/02/19 06:03:35;;;;;;;22.83;5.93;;;10.10;99.90;;;;;;5020615;28;37326;-74
2024/02/19 06:06:02;;;;;;;19.50;5.47;;;10.10;99.90;;;;;;5024361;28;37239;-74
2024/02/19 06:08:28;;;;;;;23.73;5.20;;;10.10;99.90;;;;;;5035366;28;36024;-74
2024/02/19 06:10:55;;;;;;;24.03;5.73;;;10.00;99.90;;;;;;5045885;28;39663;-74
2024/02/19 06:13:22;;;;;;;25.63;5.53;;;10.00;99.90;;;;;;5026577;28;37308;-74
2024/02/19 06:15:48;;;;;;;24.83;6.77;;;10.00;99.90;;;;;;5025183;28;38672;-74
2024/02/19 06:18:14;;;;;;;26.80;6.37;;;10.00;99.90;;;;;;5039094;28;38189;-74
2024/02/19 06:20:40;;;;;;;27.47;6.40;;;10.00;99.90;;;;;;5023837;28;39579;-74
2024/02/19 06:23:06;;;;;;;24.03;6.60;;;10.00;99.90;;;;;;5046733;28;38739;-74
2024/02/19 06:25:33;;;;;;;26.10;6.13;;;10.00;99.90;;;;;;5029896;28;36901;-74
2024/02/19 06:28:02;;;;;;;25.20;7.10;;;10.00;99.90;;;;;;5029666;28;37919;-74
2024/02/19 06:30:28;;;;;;;23.93;6.37;;;10.00;99.90;;;;;;5044194;28;47978;-74
2024/02/19 06:32:54;;;;;;;27.83;5.97;;;10.00;99.90;;;;;;5043388;28;38277;-74
2024/02/19 06:35:20;;;;;;;23.27;6.67;;;10.00;99.90;;;;;;5031934;28;38878;-74
2024/02/19 06:37:48;;;;;;;27.07;6.60;;;10.00;99.90;;;;;;5032208;28;36260;-74
2024/02/19 06:40:14;;;;;;;22.40;5.90;;;10.00;99.90;;;;;;5043599;28;38002;-74
2024/02/19 06:42:41;;;;;;;26.00;6.70;;;10.00;99.90;;;;;;5032041;28;39451;-74
2024/02/19 06:45:07;;;;;;;30.67;6.20;;;10.00;99.90;;;;;;5027162;28;39895;-75
2024/02/19 06:47:34;;;;;;;22.83;5.83;;;9.90;99.90;;;;;;5048789;28;38880;-73
2024/02/19 06:50:00;;;;;;;24.03;6.37;;;9.90;99.90;;;;;;5049622;28;39810;-74
2024/02/19 06:52:26;;;;;;;21.77;5.37;;;9.90;99.90;;;;;;5028967;28;38876;-74
2024/02/19 06:54:52;;;;;;;21.43;6.10;;;9.90;99.90;;;;;;5044358;28;38976;-75
2024/02/19 06:57:18;;;;;;;23.03;5.47;;;9.90;99.90;;;;;;5024773;28;41404;-74
2024/02/19 06:59:44;;;;;;;23.43;5.20;;;10.00;99.90;;;;;;5030817;28;37824;-73
2024/02/19 07:02:11;;;;;;;29.03;5.63;;;10.00;99.90;;;;;;5032135;28;38729;-73
2024/02/19 07:04:39;;;;;;;22.17;5.07;;;10.00;99.90;;;;;;5049253;28;38009;-73
2024/02/19 07:07:09;;;;;;;24.30;5.60;;;10.00;99.90;;;;;;5043612;28;37003;-73
2024/02/19 07:09:40;;;;;;;18.73;5.80;;;10.00;99.90;;;;;;5025910;28;37380;-73
2024/02/19 07:12:06;;;;;;;24.47;5.40;;;10.00;99.90;;;;;;5023148;28;40732;-74
2024/02/19 07:14:32;;;;;;;14.73;4.30;;;9.90;99.90;;;;;;5028439;28;38899;-73
2024/02/19 07:16:59;;;;;;;18.23;5.13;;;9.90;99.90;;;;;;5037468;28;37041;-73
2024/02/19 07:19:25;;;;;;;17.20;4.13;;;9.80;99.90;;;;;;5029023;28;38579;-73
2024/02/19 07:21:51;;;;;;;23.10;5.23;;;9.80;99.90;;;;;;5043887;28;39423;-73
2024/02/19 07:24:17;;;;;;;21.50;4.70;;;9.80;99.90;;;;;;5028082;28;38354;-74
2024/02/19 07:26:44;;;;;;;25.23;5.23;;;9.80;99.90;;;;;;5030533;28;37096;-74
2024/02/19 07:29:10;;;;;;;19.83;4.83;;;9.80;99.90;;;;;;5043050;28;39884;-74
2024/02/19 07:31:36;;;;;;;25.03;5.43;;;9.90;99.90;;;;;;5026628;28;39607;-74
2024/02/19 07:34:02;;;;;;;19.20;4.17;;;9.90;99.90;;;;;;5042990;28;37832;-74
2024/02/19 07:36:28;;;;;;;14.00;4.10;;;10.00;99.90;;;;;;5028954;28;39189;-74
2024/02/19 07:38:55;;;;;;;17.07;4.67;;;10.00;99.90;;;;;;5029714;28;40597;-74
2024/02/19 07:41:21;;;;;;;21.07;4.20;;;10.10;99.90;;;;;;5027608;28;38710;-74
2024/02/19 07:43:47;;;;;;;19.57;3.87;;;10.10;99.90;;;;;;5027416;28;39201;-73
2024/02/19 07:46:13;;;;;;;16.00;3.80;;;10.10;99.90;;;;;;5005383;28;35931;-73
2024/02/19 07:48:39;;;;;;;19.40;4.80;;;10.10;99.90;;;;;;5028843;28;38342;-74
2024/02/19 07:51:05;;;;;;;23.87;4.60;;;10.20;99.90;;;;;;5027811;28;39035;-73
2024/02/19 07:53:32;;;;;;;17.93;4.57;;;10.10;99.90;;;;;;5008954;28;38210;-73
2024/02/19 07:56:05;;;;;;;18.73;4.17;;;10.10;99.90;;;;;;5028648;28;36741;-73
2024/02/19 07:58:31;;;;;;;17.53;4.53;;;10.20;99.90;;;;;;5008331;28;47094;-74
2024/02/19 08:00:58;;;;;;;18.40;4.90;;;10.20;99.90;;;;;;5029486;28;39018;-73
2024/02/19 08:03:24;;;;;;;24.57;4.97;;;10.30;99.90;;;;;;5011780;28;36861;-74
2024/02/19 08:05:50;;;;;;;19.20;4.30;;;10.40;99.90;;;;;;5029057;28;36891;-74
2024/02/19 08:08:17;;;;;;;19.90;4.80;;;10.40;99.90;;;;;;5019564;28;37456;-73
2024/02/19 08:10:44;;;;;;;15.27;4.37;;;10.40;99.90;;;;;;5010324;28;38886;-72
2024/02/19 08:13:10;;;;;;;19.00;4.83;;;10.50;99.90;;;;;;5009345;28;37223;-73
2024/02/19 08:15:42;;;;;;;21.37;5.40;;;10.50;99.90;;;;;;5030396;28;38979;-73
2024/02/19 08:18:09;;;;;;;18.80;4.78;;;10.60;99.90;;;;;;5014875;28;42368;-73
2024/02/19 08:20:38;;;;;;;28.40;6.47;;;10.60;99.90;;;;;;5037688;28;36981;-74
2024/02/19 08:23:05;;;;;;;16.37;4.70;;;10.60;99.90;;;;;;5040729;28;38462;-73
2024/02/19 08:25:32;;;;;;;15.87;4.63;;;10.60;99.90;;;;;;5023681;28;38736;-73
2024/02/19 08:28:00;;;;;;;21.73;5.40;;;10.70;99.90;;;;;;5027509;28;39813;-73
2024/02/19 08:30:26;;;;;;;19.60;5.07;;;10.60;99.90;;;;;;5024386;28;39428;-73
2024/02/19 08:32:52;;;;;;;18.47;4.73;;;10.60;99.90;;;;;;5040875;28;37757;-74
2024/02/19 08:35:18;;;;;;;19.47;5.27;;;10.50;99.90;;;;;;5031026;28;37264;-74
2024/02/19 08:37:45;;;;;;;17.77;4.53;;;10.60;99.90;;;;;;5016777;28;40434;-74
2024/02/19 08:40:11;;;;;;;17.50;5.03;;;10.60;99.90;;;;;;5020708;28;38489;-75
2024/02/19 08:42:37;;;;;;;15.40;4.50;;;10.60;99.90;;;;;;5011460;28;38138;-76
2024/02/19 08:45:06;;;;;;;14.70;4.30;;;10.60;99.90;;;;;;5031864;28;35467;-76
2024/02/19 08:47:32;;;;;;;18.40;4.10;;;10.70;99.90;;;;;;5036668;28;46721;-76
2024/02/19 08:49:58;;;;;;;15.53;4.63;;;10.70;99.90;;;;;;5015518;28;39082;-76
2024/02/19 08:52:25;;;;;;;21.80;4.50;;;10.70;99.90;;;;;;5032500;28;39236;-75
2024/02/19 08:54:51;;;;;;;21.93;4.33;;;10.60;99.90;;;;;;5036492;28;36989;-75
2024/02/19 08:57:17;;;;;;;16.20;3.93;;;10.60;99.90;;;;;;5015220;28;39634;-75
2024/02/19 08:59:46;;;;;;;15.73;4.37;;;10.60;99.90;;;;;;5020466;28;39957;-76
2024/02/19 09:02:15;;;;;;;13.57;4.07;;;10.60;99.90;;;;;;5028102;28;38377;-76
2024/02/19 09:04:45;;;;;;;22.40;4.27;;;10.70;99.90;;;;;;5012412;28;37544;-76
2024/02/19 09:07:12;;;;;;;21.47;3.83;;;10.70;99.90;;;;;;5032691;28;39067;-76
2024/02/19 09:09:45;;;;;;;22.40;4.27;;;10.80;99.90;;;;;;5036738;28;38751;-76
2024/02/19 09:12:11;;;;;;;;;;;10.90;99.90;;;;;;5014861;28;37158;-75
2024/02/19 09:14:38;;;;;;;17.57;4.33;;;11.00;99.90;;;;;;5032661;28;37588;-76
2024/02/19 09:17:05;;;;;;;15.87;3.70;;;11.10;99.90;;;;;;5019305;28;37926;-75
2024/02/19 09:19:35;;;;;;;15.43;4.40;;;11.10;99.90;;;;;;5035499;28;38318;-75
2024/02/19 09:22:02;;;;;;;13.18;3.78;;;11.20;99.90;;;;;;5015287;28;38367;-76
2024/02/19 09:24:29;;;;;;;15.20;4.03;;;11.20;99.90;;;;;;5022869;28;46649;-77
2024/02/19 09:26:55;;;;;;;18.02;3.70;;;11.20;99.90;;;;;;5035386;28;38722;-78
2024/02/19 09:29:21;;;;;;;22.60;4.10;;;11.10;99.90;;;;;;5036605;28;38597;-80
2024/02/19 09:31:47;;;;;;;17.55;3.80;;;11.10;99.90;;;;;;5044704;28;37991;-80
2024/02/19 09:34:14;;;;;;;17.88;4.18;;;11.10;99.90;;;;;;5038174;28;36336;-78
2024/02/19 09:36:45;;;;;;;15.45;3.28;;;11.00;99.90;;;;;;5032586;28;38089;-79
2024/02/19 09:39:12;;;;;;;14.52;3.55;;;11.10;99.90;;;;;;5031599;28;38625;-78
2024/02/19 09:41:39;;;;;;;17.13;3.92;;;11.20;99.90;;;;;;5033146;28;37018;-77
2024/02/19 09:44:07;;;;;;;15.63;3.78;;;11.30;99.90;;;;;;5034820;28;36591;-78
2024/02/19 09:46:33;;;;;;;16.88;3.63;;;11.40;99.90;;;;;;5028305;28;39145;-78
2024/02/19 09:49:00;;;;;;;14.95;3.40;;;11.50;99.90;;;;;;5031061;28;38114;-79
2024/02/19 09:51:29;;;;;;;12.40;3.60;;;11.50;99.90;;;;;;5044131;28;36632;-78
2024/02/19 09:53:56;;;;;;;16.48;3.63;;;11.50;99.90;;;;;;5055515;28;36684;-77
2024/02/19 09:56:23;;;;;;;16.08;3.58;;;11.50;99.90;;;;;;5055094;28;39320;-78
2024/02/19 09:58:50;;;;;;;17.08;3.83;;;11.60;99.90;;;;;;5042264;28;38352;-78
2024/02/19 10:01:17;;;;;;;17.88;4.35;;;11.70;99.90;;;;;;5055627;28;39259;-77
2024/02/19 10:03:44;;;;;;;12.57;3.72;;;11.80;99.90;;;;;;5036651;28;35839;-79
2024/02/19 10:06:10;;;;;;;16.60;3.63;;;11.90;99.90;;;;;;5033367;28;38505;-78
2024/02/19 10:08:37;;;;;;;17.50;4.22;;;12.00;99.90;;;;;;5040518;28;36497;-79
2024/02/19 10:11:08;;;;;;;16.35;3.42;;;12.00;99.90;;;;;;5032727;28;37443;-78
2024/02/19 10:13:42;;;;;;;19.25;3.80;;;12.00;99.90;;;;;;5052684;28;37115;-79
2024/02/19 10:16:09;;;;;;;21.83;4.47;;;12.00;99.90;;;;;;5030624;28;39988;-79
2024/02/19 10:18:35;;;;;;;19.10;4.35;;;11.90;99.90;;;;;;5035552;28;39092;-78
2024/02/19 10:21:02;;;;;;;15.02;3.55;;;11.90;99.90;;;;;;5030855;28;39723;-79
2024/02/19 10:23:28;;;;;;;15.68;4.10;;;11.90;99.90;;;;;;5032238;28;35454;-78
2024/02/19 10:25:55;;;;;;;20.83;5.43;;;11.80;99.90;;;;;;5035649;28;38137;-78
2024/02/19 10:28:23;;;;;;;18.60;4.93;;;11.80;99.90;;;;;;5030287;28;37305;-79
2024/02/19 10:30:51;;;;;;;17.42;4.28;;;11.80;99.90;;;;;;5036910;28;37095;-78
2024/02/19 10:33:19;;;;;;;26.33;5.25;;;11.80;99.90;;;;;;5033701;28;38543;-79
2024/02/19 10:35:49;;;;;;;17.20;4.35;;;11.90;99.90;;;;;;5023212;28;39452;-78
2024/02/19 10:38:16;;;;;;;15.80;4.30;;;11.90;99.90;;;;;;5027670;28;37244;-78
2024/02/19 10:40:43;;;;;;;17.90;4.00;;;12.00;99.90;;;;;;5051850;28;38058;-78
2024/02/19 10:43:10;;;;;;;21.02;4.53;;;12.00;99.90;;;;;;5019738;28;37296;-78
2024/02/19 10:45:38;;;;;;;18.30;3.70;;;12.00;99.90;;;;;;5039234;28;38893;-78
2024/02/19 10:48:05;;;;;;;14.68;4.10;;;11.90;99.90;;;;;;5036712;28;39214;-78
2024/02/19 10:50:34;;;;;;;19.05;4.97;;;11.80;99.90;;;;;;5023765;28;36859;-78
2024/02/19 10:53:04;;;;;;;16.27;4.20;;;11.70;99.90;;;;;;5024897;28;36180;-78
2024/02/19 10:55:30;;;;;;;20.17;4.30;;;11.60;99.90;;;;;;5023540;28;46830;-78
2024/02/19 10:57:56;;;;;;;21.83;6.20;;;11.60;99.90;;;;;;5021600;28;39383;-78
2024/02/19 11:00:27;;;;;;;21.40;6.50;;;11.50;99.90;;;;;;5016313;28;38429;-79
2024/02/19 11:03:07;;;;;;;21.00;5.82;;;11.50;99.90;;;;;;5015583;28;36571;-79
2024/02/19 11:05:37;;;;;;;20.10;6.93;;;11.40;99.90;;;;;;5017660;28;47355;-77
2024/02/19 11:08:15;;;;;;;28.33;7.97;;;11.50;99.90;;;;;;5019162;28;37676;-78
2024/02/19 11:10:43;;;;;;;22.98;7.25;;;11.40;99.90;;;;;;5040142;28;37890;-78
2024/02/19 11:13:12;;;;;;;23.38;7.75;;;11.50;99.90;;;;;;5023624;28;35527;-78
2024/02/19 11:15:44;;;;;;;21.80;7.22;;;11.50;99.90;;;;;;5042344;28;39445;-77
2024/02/19 11:18:18;;;;;;;17.27;5.90;;;11.50;99.90;;;;;;5040108;28;39596;-78
2024/02/19 11:20:45;;;;;;;17.20;6.95;;;11.60;99.90;;;;;;5022701;28;37678;-78
2024/02/19 11:23:16;;;;;;;24.52;8.32;;;11.70;99.90;;;;;;5041020;28;37449;-78
2024/02/19 11:25:43;;;;;;;19.05;8.05;;;11.60;99.90;;;;;;5025643;28;36699;-79
2024/02/19 11:28:10;;;;;;;21.33;7.30;;;11.40;99.90;;;;;;5026767;28;37544;-78
2024/02/19 11:30:36;;;;;;;19.95;7.40;;;11.40;99.90;;;;;;5044770;28;37576;-79
2024/02/19 11:33:04;;;;;;;17.92;6.40;;;11.40;99.90;;;;;;5023737;28;36091;-77
2024/02/19 11:35:34;;;;;;;23.48;7.47;;;11.30;99.90;;;;;;5011055;28;37776;-78
2024/02/19 11:38:00;;;;;;;23.90;7.05;;;11.30;99.90;;;;;;5015246;28;37650;-77
2024/02/19 11:40:31;;;;;;;23.58;6.35;;;11.30;99.90;;;;;;5016297;28;38720;-77
2024/02/19 11:43:01;;;;;;;20.10;5.45;;;11.30;99.90;;;;;;5018530;28;37458;-77
2024/02/19 11:45:32;;;;;;;19.02;5.90;;;11.20;99.90;;;;;;5017074;28;48089;-77
2024/02/19 11:47:59;;;;;;;20.75;5.38;;;11.20;99.90;;;;;;5018199;28;37281;-77
2024/02/19 11:50:31;;;;;;;20.90;5.75;;;11.20;99.90;;;;;;5019022;28;38387;-77
2024/02/19 11:53:00;;;;;;;;;;;11.20;99.90;;;;;;5022590;28;36965;-77
2024/02/19 11:55:29;;;;;;;17.33;5.77;;;11.10;99.90;;;;;;5022652;28;36808;-77
2024/02/19 11:57:59;;;;;;;23.90;6.60;;;11.10;99.90;;;;;;5036540;28;38332;-77
2024/02/19 12:00:29;;;;;;;21.60;6.30;;;11.00;99.90;;;;;;5034493;28;38712;-77
2024/02/19 12:02:59;;;;;;;20.57;6.73;;;10.90;99.90;;;;;;5016677;28;47742;-77
2024/02/19 12:05:26;;;;;;;21.07;6.80;;;10.90;99.90;;;;;;5016958;28;39120;-77
2024/02/19 12:07:53;;;;;;;23.07;6.70;;;10.80;99.90;;;;;;5019416;28;37142;-77
2024/02/19 12:10:19;;;;;;;27.13;8.93;;;10.80;99.90;;;;;;5035951;28;36987;-77
2024/02/19 12:12:45;;;;;;;19.30;6.10;;;10.80;99.90;;;;;;5016036;28;36455;-76
2024/02/19 12:15:15;;;;;;;22.80;7.70;;;10.80;99.90;;;;;;5014845;28;38000;-77
2024/02/19 12:17:43;;;;;;;27.53;7.20;;;10.80;99.90;;;;;;5017411;28;38113;-76
2024/02/19 12:20:11;;;;;;;22.80;6.57;;;10.70;99.90;;;;;;5044795;28;37955;-77
2024/02/19 12:22:38;;;;;;;26.60;6.23;;;10.70;99.90;;;;;;5042527;28;37100;-77
2024/02/19 12:25:05;;;;;;;29.20;7.30;;;10.70;99.90;;;;;;5039151;28;38813;-77
2024/02/19 12:27:32;;;;;;;20.73;5.23;;;10.70;99.90;;;;;;5021515;28;38906;-77
2024/02/19 12:29:58;;;;;;;16.83;4.83;;;10.70;99.90;;;;;;5019740;28;39062;-77
2024/02/19 12:32:24;;;;;;;14.00;4.50;;;10.70;99.90;;;;;;5017931;28;36147;-77
2024/02/19 12:34:50;;;;;;;13.63;4.63;;;10.70;99.90;;;;;;5020948;28;38522;-76
2024/02/19 12:37:16;;;;;;;18.27;4.50;;;10.80;99.90;;;;;;5033907;28;38384;-76
2024/02/19 12:39:43;;;;;;;16.87;4.07;;;10.80;99.90;;;;;;5036996;28;38371;-76
2024/02/19 12:42:10;;;;;;;13.10;4.87;;;10.80;99.90;;;;;;5015676;28;38554;-76
2024/02/19 12:44:37;;;;;;;15.43;4.27;;;10.80;99.90;;;;;;5024081;28;39873;-77